KLM085 RCTP-RPLL
Flight info
| Callsign | KLM085 |
|---|---|
| Flight time | 1h 48m |
| Altitude | 38000 |
| Route | TINHO1A TINHO Q11 POTIB M646 LAO/N0486F390 B462 CAB CAB7R |
| Aircraft | B77W/H-SDE1E2E3FGHIJ2J3J4J5M1RWXYZ/LB1D1 |
Departure
| Time | 2026-05-06 06:50 |
|---|---|
| Airport | Taiwan Taoyuan International Airport (RCTP) |
Arrival
| Time | 2026-05-06 08:38 |
|---|---|
| Airport | Ninoy Aquino International Airport (RPLL) |
| Time | Latitude | Longitude | Altitude | Speed | Heading |
|---|---|---|---|---|---|
| 2026-05-06 06:16 | 25.07856 | 121.22977 | 106 ft | 0 kts | 139° |
| 2026-05-06 06:34 | 25.07870 | 121.22964 | 107 ft | 4 kts | 139° |
| 2026-05-06 06:35 | 25.07890 | 121.22944 | 107 ft | 4 kts | 138° |
| 2026-05-06 06:35 | 25.07908 | 121.22923 | 106 ft | 4 kts | 116° |
| 2026-05-06 06:35 | 25.07914 | 121.22895 | 106 ft | 4 kts | 83° |
| 2026-05-06 06:35 | 25.07907 | 121.22872 | 106 ft | 1 kts | 49° |
| 2026-05-06 06:39 | 25.07910 | 121.22876 | 106 ft | 1 kts | 49° |
| 2026-05-06 06:39 | 25.07918 | 121.22886 | 106 ft | 3 kts | 49° |
| 2026-05-06 06:40 | 25.07936 | 121.22909 | 107 ft | 5 kts | 49° |
| 2026-05-06 06:40 | 25.07966 | 121.22945 | 108 ft | 7 kts | 39° |
| 2026-05-06 06:40 | 25.08014 | 121.22938 | 106 ft | 8 kts | 324° |
| 2026-05-06 06:40 | 25.08032 | 121.22877 | 107 ft | 9 kts | 253° |
| 2026-05-06 06:41 | 25.07990 | 121.22814 | 109 ft | 11 kts | 231° |
| 2026-05-06 06:41 | 25.07935 | 121.22742 | 106 ft | 13 kts | 228° |
| 2026-05-06 06:41 | 25.07869 | 121.22662 | 107 ft | 15 kts | 228° |
| 2026-05-06 06:41 | 25.07795 | 121.22569 | 107 ft | 17 kts | 229° |
| 2026-05-06 06:42 | 25.07720 | 121.22468 | 105 ft | 18 kts | 230° |
| 2026-05-06 06:42 | 25.07636 | 121.22362 | 106 ft | 19 kts | 228° |
| 2026-05-06 06:42 | 25.07546 | 121.22248 | 106 ft | 20 kts | 229° |
| 2026-05-06 06:42 | 25.07456 | 121.22133 | 105 ft | 20 kts | 229° |
| 2026-05-06 06:43 | 25.07386 | 121.22043 | 105 ft | 7 kts | 229° |
| 2026-05-06 06:43 | 25.07352 | 121.22004 | 105 ft | 7 kts | 216° |
| 2026-05-06 06:43 | 25.07304 | 121.21996 | 107 ft | 7 kts | 161° |
| 2026-05-06 06:43 | 25.07264 | 121.22033 | 107 ft | 8 kts | 141° |
| 2026-05-06 06:44 | 25.07222 | 121.22070 | 107 ft | 8 kts | 140° |
| 2026-05-06 06:44 | 25.07183 | 121.22109 | 108 ft | 8 kts | 138° |
| 2026-05-06 06:44 | 25.07143 | 121.22147 | 106 ft | 8 kts | 138° |
| 2026-05-06 06:44 | 25.07103 | 121.22185 | 106 ft | 8 kts | 142° |
| 2026-05-06 06:45 | 25.07057 | 121.22226 | 106 ft | 10 kts | 139° |
| 2026-05-06 06:45 | 25.06998 | 121.22282 | 106 ft | 13 kts | 139° |
| 2026-05-06 06:45 | 25.06924 | 121.22353 | 106 ft | 16 kts | 139° |
| 2026-05-06 06:45 | 25.06837 | 121.22437 | 106 ft | 18 kts | 139° |
| 2026-05-06 06:46 | 25.06734 | 121.22535 | 106 ft | 21 kts | 140° |
| 2026-05-06 06:46 | 25.06668 | 121.22596 | 105 ft | 10 kts | 140° |
| 2026-05-06 06:46 | 25.06606 | 121.22650 | 105 ft | 13 kts | 156° |
| 2026-05-06 06:46 | 25.06532 | 121.22604 | 104 ft | 14 kts | 225° |
| 2026-05-06 06:47 | 25.06459 | 121.22518 | 104 ft | 16 kts | 229° |
| 2026-05-06 06:47 | 25.06379 | 121.22414 | 105 ft | 19 kts | 231° |
| 2026-05-06 06:47 | 25.06292 | 121.22295 | 105 ft | 14 kts | 231° |
| 2026-05-06 06:47 | 25.06228 | 121.22247 | 105 ft | 11 kts | 184° |
| 2026-05-06 06:48 | 25.06204 | 121.22257 | 106 ft | 0 kts | 143° |
| 2026-05-06 06:49 | 25.06190 | 121.22269 | 106 ft | 6 kts | 142° |
| 2026-05-06 06:49 | 25.06151 | 121.22302 | 102 ft | 9 kts | 142° |
| 2026-05-06 06:49 | 25.06104 | 121.22355 | 103 ft | 10 kts | 110° |
| 2026-05-06 06:49 | 25.06141 | 121.22427 | 101 ft | 19 kts | 46° |
| 2026-05-06 06:50 | 25.06419 | 121.22771 | 101 ft | 104 kts | 49° |
| 2026-05-06 06:50 | 25.07071 | 121.23592 | 102 ft | 176 kts | 47° |
| 2026-05-06 06:50 | 25.07925 | 121.24657 | 737 ft | 186 kts | 49° |
| 2026-05-06 06:50 | 25.08738 | 121.25721 | 1851 ft | 178 kts | 50° |
| 2026-05-06 06:51 | 25.09527 | 121.26828 | 2577 ft | 194 kts | 50° |
| 2026-05-06 06:51 | 25.10451 | 121.28070 | 2908 ft | 225 kts | 51° |
| 2026-05-06 06:51 | 25.11512 | 121.29487 | 3374 ft | 249 kts | 50° |
| 2026-05-06 06:51 | 25.12684 | 121.30918 | 4219 ft | 257 kts | 45° |
| 2026-05-06 06:52 | 25.13976 | 121.32335 | 5072 ft | 266 kts | 45° |
| 2026-05-06 06:52 | 25.15301 | 121.33800 | 5967 ft | 273 kts | 46° |
| 2026-05-06 06:52 | 25.16646 | 121.35328 | 6835 ft | 280 kts | 46° |
| 2026-05-06 06:52 | 25.18019 | 121.36888 | 7724 ft | 286 kts | 46° |
| 2026-05-06 06:53 | 25.19421 | 121.38476 | 8618 ft | 290 kts | 47° |
| 2026-05-06 06:53 | 25.20836 | 121.40097 | 9478 ft | 296 kts | 47° |
| 2026-05-06 06:53 | 25.22276 | 121.41763 | 10279 ft | 303 kts | 47° |
| 2026-05-06 06:53 | 25.23757 | 121.43490 | 10699 ft | 327 kts | 46° |
| 2026-05-06 06:54 | 25.25407 | 121.45412 | 10863 ft | 359 kts | 45° |
| 2026-05-06 06:54 | 25.27207 | 121.47471 | 11153 ft | 385 kts | 45° |
| 2026-05-06 06:54 | 25.29015 | 121.49706 | 11693 ft | 394 kts | 55° |
| 2026-05-06 06:54 | 25.30030 | 121.52553 | 12475 ft | 406 kts | 82° |
| 2026-05-06 06:55 | 25.29886 | 121.55669 | 13481 ft | 409 kts | 106° |
| 2026-05-06 06:55 | 25.28654 | 121.58501 | 14420 ft | 413 kts | 127° |
| 2026-05-06 06:55 | 25.26659 | 121.60802 | 15243 ft | 419 kts | 142° |
| 2026-05-06 06:55 | 25.24232 | 121.62627 | 16019 ft | 426 kts | 152° |
| 2026-05-06 06:56 | 25.21569 | 121.64129 | 16810 ft | 432 kts | 157° |
| 2026-05-06 06:56 | 25.18820 | 121.65431 | 17584 ft | 439 kts | 159° |
| 2026-05-06 06:56 | 25.15954 | 121.66685 | 18334 ft | 446 kts | 160° |
| 2026-05-06 06:56 | 25.13039 | 121.67937 | 19049 ft | 454 kts | 160° |
| 2026-05-06 06:57 | 25.10074 | 121.69220 | 19814 ft | 459 kts | 160° |
| 2026-05-06 06:57 | 25.07088 | 121.70531 | 20581 ft | 463 kts | 160° |
| 2026-05-06 06:57 | 25.04080 | 121.71872 | 21295 ft | 469 kts | 160° |
| 2026-05-06 06:57 | 25.01027 | 121.73246 | 21931 ft | 474 kts | 160° |
| 2026-05-06 06:58 | 24.97965 | 121.74633 | 22584 ft | 479 kts | 160° |
| 2026-05-06 06:58 | 24.94899 | 121.76025 | 23204 ft | 484 kts | 160° |
| 2026-05-06 06:58 | 24.91769 | 121.77447 | 23825 ft | 488 kts | 160° |
| 2026-05-06 06:58 | 24.88618 | 121.78877 | 24416 ft | 493 kts | 160° |
| 2026-05-06 06:59 | 24.85428 | 121.80321 | 24963 ft | 497 kts | 160° |
| 2026-05-06 06:59 | 24.82206 | 121.81779 | 25461 ft | 503 kts | 160° |
| 2026-05-06 06:59 | 24.78949 | 121.83249 | 25938 ft | 509 kts | 160° |
| 2026-05-06 06:59 | 24.75662 | 121.84732 | 26399 ft | 514 kts | 160° |
| 2026-05-06 07:00 | 24.72325 | 121.86238 | 26873 ft | 519 kts | 160° |
| 2026-05-06 07:00 | 24.68965 | 121.87755 | 27346 ft | 523 kts | 160° |
| 2026-05-06 07:00 | 24.66730 | 121.88763 | 27667 ft | 525 kts | 160° |
| 2026-05-06 07:00 | 24.63327 | 121.90297 | 28074 ft | 530 kts | 160° |
| 2026-05-06 07:01 | 24.59895 | 121.91844 | 28443 ft | 536 kts | 159° |
| 2026-05-06 07:01 | 24.56433 | 121.93403 | 28824 ft | 540 kts | 159° |
| 2026-05-06 07:01 | 24.52949 | 121.94971 | 29190 ft | 543 kts | 159° |
| 2026-05-06 07:01 | 24.49421 | 121.96557 | 29517 ft | 548 kts | 159° |
| 2026-05-06 07:02 | 24.45886 | 121.98146 | 29822 ft | 552 kts | 159° |
| 2026-05-06 07:02 | 24.42311 | 121.99752 | 30174 ft | 555 kts | 159° |
| 2026-05-06 07:02 | 24.38766 | 122.01277 | 30559 ft | 551 kts | 165° |
| 2026-05-06 07:02 | 24.34981 | 122.02050 | 30902 ft | 545 kts | 181° |
| 2026-05-06 07:03 | 24.31249 | 122.01785 | 31403 ft | 532 kts | 197° |
| 2026-05-06 07:03 | 24.27772 | 122.00624 | 31914 ft | 518 kts | 205° |
| 2026-05-06 07:03 | 24.24344 | 121.99360 | 32332 ft | 520 kts | 204° |
| 2026-05-06 07:03 | 24.20936 | 121.98179 | 32782 ft | 520 kts | 203° |
| 2026-05-06 07:04 | 24.17475 | 121.97031 | 33302 ft | 518 kts | 203° |
| 2026-05-06 07:04 | 24.14031 | 121.95915 | 33862 ft | 514 kts | 203° |
| 2026-05-06 07:04 | 24.10605 | 121.94811 | 34393 ft | 511 kts | 203° |
| 2026-05-06 07:04 | 24.07200 | 121.93711 | 34887 ft | 509 kts | 204° |
| 2026-05-06 07:05 | 24.03812 | 121.92613 | 35395 ft | 505 kts | 204° |
| 2026-05-06 07:05 | 24.00452 | 121.91519 | 35897 ft | 502 kts | 204° |
| 2026-05-06 07:05 | 23.97116 | 121.90431 | 36394 ft | 498 kts | 204° |
| 2026-05-06 07:05 | 23.93800 | 121.89351 | 36818 ft | 496 kts | 204° |
| 2026-05-06 07:06 | 23.90503 | 121.88276 | 37278 ft | 492 kts | 204° |
| 2026-05-06 07:06 | 23.87240 | 121.87213 | 37789 ft | 487 kts | 204° |
| 2026-05-06 07:06 | 23.83987 | 121.86154 | 37956 ft | 488 kts | 204° |
| 2026-05-06 07:07 | 23.77559 | 121.84065 | 37940 ft | 480 kts | 204° |
| 2026-05-06 07:07 | 23.71150 | 121.81978 | 37960 ft | 483 kts | 204° |
| 2026-05-06 07:08 | 23.64658 | 121.79863 | 37960 ft | 489 kts | 204° |
| 2026-05-06 07:08 | 23.58108 | 121.77739 | 37954 ft | 492 kts | 204° |
| 2026-05-06 07:09 | 23.51528 | 121.75643 | 37939 ft | 492 kts | 203° |
| 2026-05-06 07:09 | 23.44991 | 121.73571 | 37945 ft | 491 kts | 203° |
| 2026-05-06 07:10 | 23.38443 | 121.71484 | 37943 ft | 489 kts | 203° |
| 2026-05-06 07:10 | 23.31929 | 121.69369 | 37941 ft | 487 kts | 204° |
| 2026-05-06 07:11 | 23.25443 | 121.67258 | 37946 ft | 485 kts | 204° |
| 2026-05-06 07:11 | 23.18988 | 121.65165 | 37945 ft | 483 kts | 203° |
| 2026-05-06 07:12 | 23.12541 | 121.63079 | 37948 ft | 483 kts | 203° |
| 2026-05-06 07:12 | 23.06097 | 121.60995 | 37944 ft | 482 kts | 203° |
| 2026-05-06 07:13 | 22.99701 | 121.58931 | 37948 ft | 483 kts | 203° |
| 2026-05-06 07:13 | 22.93248 | 121.56869 | 37941 ft | 483 kts | 202° |
| 2026-05-06 07:14 | 22.86799 | 121.54821 | 37939 ft | 483 kts | 202° |
| 2026-05-06 07:14 | 22.80341 | 121.52772 | 37937 ft | 483 kts | 202° |
| 2026-05-06 07:15 | 22.73884 | 121.50722 | 37934 ft | 483 kts | 202° |
| 2026-05-06 07:15 | 22.67444 | 121.48663 | 37936 ft | 482 kts | 204° |
| 2026-05-06 07:16 | 22.61235 | 121.46062 | 37938 ft | 477 kts | 208° |
| 2026-05-06 07:16 | 22.55144 | 121.43334 | 37933 ft | 476 kts | 208° |
| 2026-05-06 07:17 | 22.49006 | 121.40610 | 37935 ft | 476 kts | 208° |
| 2026-05-06 07:17 | 22.42864 | 121.37910 | 37933 ft | 476 kts | 208° |
| 2026-05-06 07:18 | 22.36730 | 121.35222 | 37940 ft | 476 kts | 208° |
| 2026-05-06 07:18 | 22.30590 | 121.32538 | 37936 ft | 476 kts | 208° |
| 2026-05-06 07:19 | 22.24442 | 121.29851 | 37933 ft | 476 kts | 208° |
| 2026-05-06 07:19 | 22.18305 | 121.27169 | 37934 ft | 476 kts | 208° |
| 2026-05-06 07:20 | 22.12185 | 121.24494 | 37932 ft | 476 kts | 208° |
| 2026-05-06 07:20 | 22.06035 | 121.21810 | 37937 ft | 476 kts | 208° |
| 2026-05-06 07:21 | 21.99890 | 121.19132 | 37936 ft | 476 kts | 208° |
| 2026-05-06 07:21 | 21.93777 | 121.16467 | 37932 ft | 477 kts | 207° |
| 2026-05-06 07:22 | 21.87632 | 121.13784 | 37932 ft | 477 kts | 207° |
| 2026-05-06 07:22 | 21.81470 | 121.11097 | 37936 ft | 477 kts | 207° |
| 2026-05-06 07:23 | 21.75315 | 121.08417 | 37931 ft | 477 kts | 207° |
| 2026-05-06 07:23 | 21.69205 | 121.05759 | 37939 ft | 476 kts | 207° |
| 2026-05-06 07:24 | 21.63058 | 121.03085 | 37932 ft | 477 kts | 207° |
| 2026-05-06 07:24 | 21.56891 | 121.00405 | 37929 ft | 477 kts | 207° |
| 2026-05-06 07:25 | 21.50735 | 120.97733 | 37920 ft | 477 kts | 207° |
| 2026-05-06 07:25 | 21.44613 | 120.95076 | 37916 ft | 477 kts | 207° |
| 2026-05-06 07:26 | 21.38454 | 120.92407 | 37918 ft | 477 kts | 207° |
| 2026-05-06 07:26 | 21.32299 | 120.89745 | 37917 ft | 477 kts | 207° |
| 2026-05-06 07:27 | 21.26133 | 120.87080 | 37916 ft | 477 kts | 207° |
| 2026-05-06 07:27 | 21.19970 | 120.84416 | 37915 ft | 477 kts | 207° |
| 2026-05-06 07:28 | 21.13814 | 120.81757 | 37916 ft | 477 kts | 207° |
| 2026-05-06 07:28 | 21.04574 | 120.77772 | 37917 ft | 478 kts | 206° |
| 2026-05-06 07:29 | 20.98169 | 120.75793 | 37920 ft | 486 kts | 196° |
| 2026-05-06 07:29 | 20.91411 | 120.74977 | 37920 ft | 491 kts | 189° |
| 2026-05-06 07:30 | 20.84585 | 120.74474 | 37906 ft | 491 kts | 189° |
| 2026-05-06 07:30 | 20.77790 | 120.73959 | 37907 ft | 490 kts | 189° |
| 2026-05-06 07:31 | 20.70978 | 120.73410 | 37907 ft | 490 kts | 189° |
| 2026-05-06 07:31 | 20.64172 | 120.72847 | 37908 ft | 490 kts | 189° |
| 2026-05-06 07:32 | 20.57366 | 120.72283 | 37907 ft | 490 kts | 189° |
| 2026-05-06 07:32 | 20.50613 | 120.71726 | 37904 ft | 490 kts | 189° |
| 2026-05-06 07:33 | 20.43816 | 120.71166 | 37897 ft | 489 kts | 189° |
| 2026-05-06 07:33 | 20.37023 | 120.70608 | 37899 ft | 489 kts | 189° |
| 2026-05-06 07:34 | 20.30239 | 120.70051 | 37899 ft | 489 kts | 189° |
| 2026-05-06 07:34 | 20.23442 | 120.69494 | 37898 ft | 489 kts | 189° |
| 2026-05-06 07:35 | 20.16642 | 120.68934 | 37893 ft | 489 kts | 189° |
| 2026-05-06 07:35 | 20.09845 | 120.68378 | 37892 ft | 489 kts | 189° |
| 2026-05-06 07:36 | 20.03093 | 120.67824 | 37889 ft | 489 kts | 189° |
| 2026-05-06 07:36 | 19.96308 | 120.67272 | 37887 ft | 489 kts | 188° |
| 2026-05-06 07:37 | 19.89522 | 120.66718 | 37892 ft | 489 kts | 188° |
| 2026-05-06 07:37 | 19.82727 | 120.66164 | 37878 ft | 489 kts | 188° |
| 2026-05-06 07:38 | 19.75939 | 120.65610 | 37880 ft | 489 kts | 188° |
| 2026-05-06 07:38 | 19.69157 | 120.65058 | 37880 ft | 488 kts | 188° |
| 2026-05-06 07:39 | 19.62368 | 120.64504 | 37879 ft | 489 kts | 188° |
| 2026-05-06 07:39 | 19.55595 | 120.63954 | 37875 ft | 488 kts | 188° |
| 2026-05-06 07:40 | 19.48859 | 120.63406 | 37873 ft | 488 kts | 188° |
| 2026-05-06 07:40 | 19.42078 | 120.62855 | 37878 ft | 489 kts | 188° |
| 2026-05-06 07:41 | 19.35288 | 120.62315 | 37865 ft | 489 kts | 188° |
| 2026-05-06 07:41 | 19.28493 | 120.61784 | 37869 ft | 489 kts | 188° |
| 2026-05-06 07:42 | 19.21705 | 120.61251 | 37879 ft | 489 kts | 188° |
| 2026-05-06 07:42 | 19.14914 | 120.60717 | 37866 ft | 489 kts | 188° |
| 2026-05-06 07:43 | 19.08168 | 120.60186 | 37862 ft | 489 kts | 188° |
| 2026-05-06 07:43 | 19.01379 | 120.59632 | 37859 ft | 489 kts | 188° |
| 2026-05-06 07:44 | 18.94599 | 120.59076 | 37858 ft | 489 kts | 188° |
| 2026-05-06 07:44 | 18.87813 | 120.58521 | 37864 ft | 489 kts | 188° |
| 2026-05-06 07:45 | 18.81029 | 120.57969 | 37864 ft | 489 kts | 187° |
| 2026-05-06 07:45 | 18.74243 | 120.57417 | 37862 ft | 489 kts | 187° |
| 2026-05-06 07:46 | 18.67462 | 120.56865 | 37863 ft | 488 kts | 187° |
| 2026-05-06 07:46 | 18.61816 | 120.56410 | 37861 ft | 489 kts | 187° |
| 2026-05-06 07:47 | 18.55039 | 120.55868 | 37862 ft | 489 kts | 187° |
| 2026-05-06 07:47 | 18.47152 | 120.55238 | 37859 ft | 489 kts | 187° |
| 2026-05-06 07:48 | 18.41457 | 120.54782 | 37860 ft | 489 kts | 187° |
| 2026-05-06 07:48 | 18.34702 | 120.54242 | 37857 ft | 490 kts | 187° |
| 2026-05-06 07:49 | 18.27901 | 120.53699 | 37860 ft | 490 kts | 187° |
| 2026-05-06 07:49 | 18.21107 | 120.53170 | 37862 ft | 491 kts | 185° |
| 2026-05-06 07:50 | 18.14247 | 120.53488 | 38019 ft | 498 kts | 174° |
| 2026-05-06 07:50 | 18.10838 | 120.54135 | 38286 ft | 498 kts | 172° |
| 2026-05-06 07:50 | 18.07442 | 120.54836 | 38568 ft | 497 kts | 172° |
| 2026-05-06 07:51 | 18.04042 | 120.55510 | 38788 ft | 497 kts | 172° |
| 2026-05-06 07:51 | 18.00628 | 120.56155 | 38826 ft | 499 kts | 173° |
| 2026-05-06 07:51 | 17.93796 | 120.57416 | 38855 ft | 496 kts | 172° |
| 2026-05-06 07:52 | 17.87028 | 120.58667 | 38860 ft | 491 kts | 172° |
| 2026-05-06 07:52 | 17.80312 | 120.59911 | 38853 ft | 489 kts | 172° |
| 2026-05-06 07:53 | 17.73613 | 120.61153 | 38862 ft | 488 kts | 172° |
| 2026-05-06 07:53 | 17.66913 | 120.62392 | 38865 ft | 489 kts | 172° |
| 2026-05-06 07:54 | 17.60242 | 120.63622 | 38867 ft | 491 kts | 172° |
| 2026-05-06 07:54 | 17.53495 | 120.64869 | 38863 ft | 493 kts | 172° |
| 2026-05-06 07:55 | 17.46731 | 120.66118 | 38870 ft | 494 kts | 172° |
| 2026-05-06 07:55 | 17.39950 | 120.67369 | 38857 ft | 495 kts | 172° |
| 2026-05-06 07:56 | 17.33163 | 120.68620 | 38860 ft | 494 kts | 172° |
| 2026-05-06 07:56 | 17.26394 | 120.69866 | 38866 ft | 493 kts | 172° |
| 2026-05-06 07:57 | 17.19636 | 120.71112 | 38855 ft | 492 kts | 172° |
| 2026-05-06 07:57 | 17.12940 | 120.72343 | 38864 ft | 491 kts | 172° |
| 2026-05-06 07:58 | 17.06210 | 120.73581 | 38861 ft | 490 kts | 172° |
| 2026-05-06 07:58 | 16.99490 | 120.74817 | 38853 ft | 489 kts | 172° |
| 2026-05-06 07:59 | 16.92779 | 120.76049 | 38853 ft | 489 kts | 172° |
| 2026-05-06 07:59 | 16.86075 | 120.77280 | 38852 ft | 488 kts | 172° |
| 2026-05-06 08:00 | 16.79388 | 120.78507 | 38856 ft | 487 kts | 172° |
| 2026-05-06 08:00 | 16.72742 | 120.79724 | 38855 ft | 487 kts | 172° |
| 2026-05-06 08:01 | 16.66074 | 120.80945 | 38844 ft | 486 kts | 172° |
| 2026-05-06 08:01 | 16.59410 | 120.82166 | 38856 ft | 486 kts | 172° |
| 2026-05-06 08:02 | 16.52747 | 120.83385 | 38854 ft | 486 kts | 172° |
| 2026-05-06 08:02 | 16.46082 | 120.84601 | 38851 ft | 486 kts | 172° |
| 2026-05-06 08:03 | 16.39416 | 120.85818 | 38851 ft | 486 kts | 172° |
| 2026-05-06 08:03 | 16.32799 | 120.87027 | 38844 ft | 486 kts | 172° |
| 2026-05-06 08:04 | 16.26138 | 120.88243 | 38857 ft | 486 kts | 172° |
| 2026-05-06 08:04 | 16.19472 | 120.89458 | 38850 ft | 486 kts | 172° |
| 2026-05-06 08:05 | 16.12816 | 120.90669 | 38841 ft | 485 kts | 172° |
| 2026-05-06 08:05 | 16.06197 | 120.91876 | 38785 ft | 478 kts | 172° |
| 2026-05-06 08:06 | 16.02926 | 120.92470 | 38467 ft | 478 kts | 172° |
| 2026-05-06 08:06 | 15.99626 | 120.93070 | 38184 ft | 482 kts | 172° |
| 2026-05-06 08:06 | 15.96325 | 120.93671 | 37947 ft | 480 kts | 172° |
| 2026-05-06 08:06 | 15.93084 | 120.94262 | 37704 ft | 476 kts | 172° |
| 2026-05-06 08:07 | 15.89841 | 120.94852 | 37442 ft | 471 kts | 172° |
| 2026-05-06 08:07 | 15.86626 | 120.95434 | 37132 ft | 467 kts | 172° |
| 2026-05-06 08:07 | 15.83397 | 120.96019 | 36257 ft | 472 kts | 172° |
| 2026-05-06 08:07 | 15.80156 | 120.96608 | 35481 ft | 473 kts | 172° |
| 2026-05-06 08:08 | 15.76901 | 120.97198 | 34530 ft | 478 kts | 172° |
| 2026-05-06 08:08 | 15.73608 | 120.97794 | 33542 ft | 482 kts | 172° |
| 2026-05-06 08:08 | 15.70275 | 120.98399 | 32476 ft | 488 kts | 172° |
| 2026-05-06 08:08 | 15.66946 | 120.99003 | 32099 ft | 479 kts | 172° |
| 2026-05-06 08:09 | 15.63737 | 120.99588 | 31819 ft | 468 kts | 172° |
| 2026-05-06 08:09 | 15.60572 | 121.00162 | 31617 ft | 456 kts | 172° |
| 2026-05-06 08:09 | 15.57482 | 121.00722 | 31430 ft | 445 kts | 172° |
| 2026-05-06 08:09 | 15.54466 | 121.01268 | 31235 ft | 434 kts | 172° |
| 2026-05-06 08:10 | 15.51517 | 121.01802 | 31070 ft | 424 kts | 172° |
| 2026-05-06 08:10 | 15.48638 | 121.02137 | 30857 ft | 410 kts | 184° |
| 2026-05-06 08:10 | 15.45875 | 121.01630 | 30464 ft | 400 kts | 202° |
| 2026-05-06 08:10 | 15.43297 | 121.00586 | 30075 ft | 395 kts | 203° |
| 2026-05-06 08:11 | 15.40745 | 120.99543 | 29643 ft | 393 kts | 202° |
| 2026-05-06 08:11 | 15.38201 | 120.98514 | 29206 ft | 391 kts | 202° |
| 2026-05-06 08:11 | 15.35663 | 120.97499 | 28764 ft | 390 kts | 202° |
| 2026-05-06 08:11 | 15.33140 | 120.96499 | 28327 ft | 387 kts | 202° |
| 2026-05-06 08:12 | 15.30624 | 120.95507 | 27890 ft | 386 kts | 201° |
| 2026-05-06 08:12 | 15.28117 | 120.94521 | 27454 ft | 383 kts | 201° |
| 2026-05-06 08:12 | 15.25629 | 120.93545 | 27027 ft | 381 kts | 201° |
| 2026-05-06 08:12 | 15.23154 | 120.92575 | 26604 ft | 380 kts | 201° |
| 2026-05-06 08:13 | 15.20721 | 120.91623 | 26177 ft | 378 kts | 201° |
| 2026-05-06 08:13 | 15.18259 | 120.90659 | 25749 ft | 375 kts | 201° |
| 2026-05-06 08:13 | 15.15814 | 120.89700 | 25321 ft | 374 kts | 201° |
| 2026-05-06 08:13 | 15.13392 | 120.88752 | 24908 ft | 372 kts | 201° |
| 2026-05-06 08:14 | 15.10978 | 120.87808 | 24499 ft | 370 kts | 201° |
| 2026-05-06 08:14 | 15.08571 | 120.86866 | 24076 ft | 368 kts | 201° |
| 2026-05-06 08:14 | 15.06210 | 120.85943 | 23662 ft | 366 kts | 201° |
| 2026-05-06 08:14 | 15.03804 | 120.85001 | 23238 ft | 364 kts | 201° |
| 2026-05-06 08:15 | 15.01480 | 120.84091 | 22944 ft | 359 kts | 201° |
| 2026-05-06 08:15 | 14.99176 | 120.83190 | 22793 ft | 349 kts | 201° |
| 2026-05-06 08:15 | 14.96937 | 120.82316 | 22637 ft | 340 kts | 201° |
| 2026-05-06 08:15 | 14.94750 | 120.81461 | 22472 ft | 331 kts | 201° |
| 2026-05-06 08:16 | 14.92598 | 120.80620 | 22108 ft | 329 kts | 201° |
| 2026-05-06 08:16 | 14.90460 | 120.79785 | 21760 ft | 327 kts | 201° |
| 2026-05-06 08:16 | 14.88332 | 120.78956 | 21391 ft | 326 kts | 200° |
| 2026-05-06 08:16 | 14.86216 | 120.78131 | 21026 ft | 324 kts | 200° |
| 2026-05-06 08:17 | 14.84114 | 120.77313 | 20662 ft | 322 kts | 200° |
| 2026-05-06 08:17 | 14.82045 | 120.76507 | 20303 ft | 321 kts | 200° |
| 2026-05-06 08:17 | 14.79958 | 120.75693 | 19920 ft | 320 kts | 200° |
| 2026-05-06 08:17 | 14.77882 | 120.74884 | 19550 ft | 318 kts | 200° |
| 2026-05-06 08:18 | 14.75815 | 120.74077 | 19182 ft | 317 kts | 200° |
| 2026-05-06 08:18 | 14.73749 | 120.73272 | 18813 ft | 316 kts | 200° |
| 2026-05-06 08:18 | 14.71694 | 120.72471 | 18453 ft | 315 kts | 200° |
| 2026-05-06 08:18 | 14.69647 | 120.71674 | 18091 ft | 314 kts | 200° |
| 2026-05-06 08:19 | 14.67607 | 120.70879 | 17734 ft | 312 kts | 200° |
| 2026-05-06 08:19 | 14.65577 | 120.70089 | 17373 ft | 311 kts | 200° |
| 2026-05-06 08:19 | 14.63549 | 120.69313 | 16992 ft | 307 kts | 196° |
| 2026-05-06 08:19 | 14.61482 | 120.69096 | 16634 ft | 301 kts | 171° |
| 2026-05-06 08:20 | 14.59502 | 120.69742 | 16280 ft | 298 kts | 152° |
| 2026-05-06 08:20 | 14.57714 | 120.70790 | 15902 ft | 290 kts | 149° |
| 2026-05-06 08:20 | 14.56001 | 120.71814 | 15386 ft | 279 kts | 149° |
| 2026-05-06 08:20 | 14.54325 | 120.72760 | 14901 ft | 268 kts | 160° |
| 2026-05-06 08:21 | 14.52579 | 120.72967 | 14928 ft | 254 kts | 189° |
| 2026-05-06 08:21 | 14.50859 | 120.72317 | 14981 ft | 273 kts | 211° |
| 2026-05-06 08:21 | 14.49434 | 120.71002 | 14947 ft | 279 kts | 236° |
| 2026-05-06 08:21 | 14.48455 | 120.69255 | 14604 ft | 281 kts | 241° |
| 2026-05-06 08:22 | 14.47515 | 120.67492 | 14069 ft | 278 kts | 240° |
| 2026-05-06 08:22 | 14.46585 | 120.65784 | 13564 ft | 269 kts | 240° |
| 2026-05-06 08:22 | 14.45673 | 120.64130 | 13028 ft | 262 kts | 240° |
| 2026-05-06 08:22 | 14.44774 | 120.62507 | 12540 ft | 259 kts | 240° |
| 2026-05-06 08:23 | 14.43880 | 120.60895 | 12036 ft | 260 kts | 240° |
| 2026-05-06 08:23 | 14.42976 | 120.59272 | 11570 ft | 262 kts | 240° |
| 2026-05-06 08:23 | 14.42077 | 120.57658 | 11016 ft | 263 kts | 240° |
| 2026-05-06 08:23 | 14.41163 | 120.56018 | 10388 ft | 263 kts | 240° |
| 2026-05-06 08:24 | 14.40257 | 120.54393 | 9767 ft | 260 kts | 240° |
| 2026-05-06 08:24 | 14.39361 | 120.52786 | 9141 ft | 256 kts | 240° |
| 2026-05-06 08:24 | 14.38477 | 120.51198 | 8508 ft | 254 kts | 239° |
| 2026-05-06 08:24 | 14.37599 | 120.49622 | 7880 ft | 252 kts | 239° |
| 2026-05-06 08:25 | 14.36740 | 120.48083 | 7525 ft | 236 kts | 239° |
| 2026-05-06 08:25 | 14.35925 | 120.46624 | 7581 ft | 242 kts | 239° |
| 2026-05-06 08:25 | 14.34961 | 120.45164 | 7578 ft | 250 kts | 221° |
| 2026-05-06 08:25 | 14.33436 | 120.44353 | 7578 ft | 249 kts | 187° |
| 2026-05-06 08:26 | 14.31763 | 120.44565 | 7583 ft | 242 kts | 154° |
| 2026-05-06 08:26 | 14.30294 | 120.45384 | 7600 ft | 241 kts | 149° |
| 2026-05-06 08:26 | 14.28831 | 120.46245 | 7598 ft | 244 kts | 148° |
| 2026-05-06 08:26 | 14.27350 | 120.47118 | 7602 ft | 245 kts | 149° |
| 2026-05-06 08:27 | 14.25864 | 120.47993 | 7606 ft | 246 kts | 149° |
| 2026-05-06 08:27 | 14.24414 | 120.48897 | 7587 ft | 240 kts | 139° |
| 2026-05-06 08:27 | 14.23470 | 120.50237 | 7568 ft | 234 kts | 107° |
| 2026-05-06 08:27 | 14.23325 | 120.51880 | 7580 ft | 232 kts | 82° |
| 2026-05-06 08:28 | 14.23809 | 120.53453 | 7581 ft | 232 kts | 64° |
| 2026-05-06 08:28 | 14.24601 | 120.54928 | 7453 ft | 241 kts | 60° |
| 2026-05-06 08:28 | 14.25467 | 120.56442 | 7185 ft | 245 kts | 60° |
| 2026-05-06 08:28 | 14.26320 | 120.57919 | 6904 ft | 234 kts | 60° |
| 2026-05-06 08:29 | 14.27140 | 120.59356 | 6677 ft | 232 kts | 60° |
| 2026-05-06 08:29 | 14.27953 | 120.60791 | 6426 ft | 232 kts | 60° |
| 2026-05-06 08:29 | 14.28758 | 120.62216 | 6185 ft | 228 kts | 60° |
| 2026-05-06 08:29 | 14.29545 | 120.63620 | 5931 ft | 224 kts | 61° |
| 2026-05-06 08:30 | 14.30312 | 120.64997 | 5704 ft | 218 kts | 61° |
| 2026-05-06 08:30 | 14.31060 | 120.66335 | 5477 ft | 213 kts | 61° |
| 2026-05-06 08:30 | 14.31797 | 120.67657 | 5250 ft | 211 kts | 61° |
| 2026-05-06 08:30 | 14.32527 | 120.68970 | 5020 ft | 210 kts | 61° |
| 2026-05-06 08:31 | 14.33251 | 120.70272 | 4823 ft | 209 kts | 61° |
| 2026-05-06 08:31 | 14.33961 | 120.71548 | 4604 ft | 207 kts | 61° |
| 2026-05-06 08:31 | 14.34672 | 120.72829 | 4401 ft | 205 kts | 62° |
| 2026-05-06 08:31 | 14.35387 | 120.74119 | 4203 ft | 209 kts | 61° |
| 2026-05-06 08:32 | 14.36113 | 120.75432 | 3987 ft | 212 kts | 61° |
| 2026-05-06 08:32 | 14.36840 | 120.76734 | 3789 ft | 207 kts | 61° |
| 2026-05-06 08:32 | 14.37544 | 120.77995 | 3581 ft | 200 kts | 62° |
| 2026-05-06 08:32 | 14.38229 | 120.79231 | 3375 ft | 195 kts | 62° |
| 2026-05-06 08:33 | 14.38672 | 120.80027 | 3223 ft | 192 kts | 61° |
| 2026-05-06 08:33 | 14.39326 | 120.81204 | 3032 ft | 185 kts | 62° |
| 2026-05-06 08:33 | 14.39941 | 120.82314 | 2900 ft | 172 kts | 62° |
| 2026-05-06 08:33 | 14.40516 | 120.83349 | 2753 ft | 164 kts | 62° |
| 2026-05-06 08:34 | 14.41093 | 120.84388 | 2669 ft | 168 kts | 62° |
| 2026-05-06 08:34 | 14.42239 | 120.86448 | 2403 ft | 162 kts | 62° |
| 2026-05-06 08:34 | 14.42797 | 120.87450 | 2283 ft | 161 kts | 63° |
| 2026-05-06 08:35 | 14.43356 | 120.88457 | 2167 ft | 162 kts | 63° |
| 2026-05-06 08:35 | 14.43918 | 120.89470 | 2063 ft | 163 kts | 63° |
| 2026-05-06 08:35 | 14.44480 | 120.90483 | 1931 ft | 160 kts | 63° |
| 2026-05-06 08:35 | 14.45031 | 120.91477 | 1827 ft | 161 kts | 63° |
| 2026-05-06 08:36 | 14.45592 | 120.92485 | 1679 ft | 163 kts | 63° |
| 2026-05-06 08:36 | 14.46153 | 120.93494 | 1448 ft | 162 kts | 63° |
| 2026-05-06 08:36 | 14.46703 | 120.94474 | 1233 ft | 152 kts | 64° |
| 2026-05-06 08:36 | 14.47203 | 120.95368 | 1074 ft | 142 kts | 65° |
| 2026-05-06 08:37 | 14.47699 | 120.96262 | 889 ft | 145 kts | 65° |
| 2026-05-06 08:37 | 14.48198 | 120.97158 | 688 ft | 144 kts | 64° |
| 2026-05-06 08:37 | 14.48695 | 120.98051 | 529 ft | 142 kts | 64° |
| 2026-05-06 08:37 | 14.49188 | 120.98918 | 416 ft | 136 kts | 64° |
| 2026-05-06 08:38 | 14.49645 | 120.99736 | 197 ft | 132 kts | 66° |
| 2026-05-06 08:38 | 14.50101 | 121.00580 | 63 ft | 127 kts | 62° |
| 2026-05-06 08:38 | 14.50464 | 121.01235 | 71 ft | 79 kts | 59° |
| 2026-05-06 08:38 | 14.50645 | 121.01558 | 66 ft | 25 kts | 60° |
| 2026-05-06 08:39 | 14.50768 | 121.01721 | 68 ft | 31 kts | 39° |
| 2026-05-06 08:39 | 14.50906 | 121.01771 | 66 ft | 17 kts | 321° |
| 2026-05-06 08:39 | 14.50961 | 121.01740 | 73 ft | 7 kts | 7° |
| 2026-05-06 08:39 | 14.51002 | 121.01771 | 68 ft | 7 kts | 45° |
| 2026-05-06 08:40 | 14.51031 | 121.01815 | 65 ft | 8 kts | 62° |
| 2026-05-06 08:40 | 14.51057 | 121.01867 | 63 ft | 9 kts | 62° |
| 2026-05-06 08:40 | 14.51087 | 121.01923 | 66 ft | 10 kts | 62° |
| 2026-05-06 08:40 | 14.51118 | 121.01987 | 70 ft | 10 kts | 63° |
| 2026-05-06 08:41 | 14.51137 | 121.02007 | 68 ft | 1 kts | 19° |
| 2026-05-06 08:41 | 14.51148 | 121.02003 | 74 ft | 3 kts | 328° |
| 2026-05-06 08:41 | 14.51137 | 121.01958 | 65 ft | 12 kts | 246° |
| 2026-05-06 08:41 | 14.51171 | 121.01885 | 70 ft | 12 kts | 315° |
| 2026-05-06 08:42 | 14.51232 | 121.01822 | 64 ft | 12 kts | 315° |
| 2026-05-06 08:42 | 14.51295 | 121.01756 | 66 ft | 13 kts | 314° |
| 2026-05-06 08:42 | 14.51360 | 121.01689 | 63 ft | 13 kts | 315° |
| 2026-05-06 08:42 | 14.51424 | 121.01623 | 71 ft | 13 kts | 315° |
| 2026-05-06 08:43 | 14.51488 | 121.01556 | 64 ft | 13 kts | 315° |
| 2026-05-06 08:43 | 14.51553 | 121.01489 | 68 ft | 13 kts | 315° |
| 2026-05-06 08:43 | 14.51616 | 121.01424 | 74 ft | 12 kts | 315° |
| 2026-05-06 08:43 | 14.51666 | 121.01372 | 66 ft | 6 kts | 315° |
| 2026-05-06 08:44 | 14.51701 | 121.01363 | 68 ft | 5 kts | 32° |
| 2026-05-06 08:44 | 14.51725 | 121.01389 | 71 ft | 4 kts | 45° |
| 2026-05-06 08:44 | 14.51746 | 121.01410 | 74 ft | 4 kts | 45° |
| 2026-05-06 08:44 | 14.51752 | 121.01417 | 74 ft | 0 kts | 45° |